Time,TemperatureF,DewpointF,PressureIn,WindDirection,WindDirectionDegrees,WindSpeedMPH,WindSpeedGustMPH,Humidity,HourlyPrecipIn,Conditions,Clouds,dailyrainin,SoftwareType,DateUTC
2013-04-04 00:02:00,32.0,23.3,29.88,ESE,112,0.0,-999.0,70,-99.99,,,0.00,Acu-Link.com,2013-04-04 07:02:00,
2013-04-04 00:18:00,32.0,23.7,29.87,SE,135,0.0,-999.0,71,-99.99,,,0.00,Acu-Link.com,2013-04-04 07:18:00,
2013-04-04 00:33:00,32.0,24.0,29.87,SE,135,0.0,-999.0,72,-99.99,,,0.00,Acu-Link.com,2013-04-04 07:33:00,
2013-04-04 00:48:00,30.2,22.6,29.87,SE,135,0.0,-999.0,73,-99.99,,,0.00,Acu-Link.com,2013-04-04 07:48:00,
2013-04-04 01:04:00,30.2,22.9,29.87,ESE,112,0.0,-999.0,74,-99.99,,,0.00,Acu-Link.com,2013-04-04 08:04:00,
2013-04-04 01:19:00,30.2,22.9,29.87,ESE,112,0.0,-999.0,74,-99.99,,,0.00,Acu-Link.com,2013-04-04 08:19:00,
2013-04-04 01:49:00,30.2,23.6,29.86,ESE,112,0.0,-999.0,76,-99.99,,,0.00,Acu-Link.com,2013-04-04 08:49:00,
2013-04-04 02:05:00,30.2,23.2,29.86,SSE,157,0.0,-999.0,75,-99.99,,,0.00,Acu-Link.com,2013-04-04 09:05:00,
2013-04-04 02:20:00,30.2,23.2,29.85,SE,135,0.0,-999.0,75,-99.99,,,0.00,Acu-Link.com,2013-04-04 09:20:00,
2013-04-04 02:35:00,30.2,23.2,29.84,SE,135,0.0,-999.0,75,-99.99,,,0.00,Acu-Link.com,2013-04-04 09:35:00,
2013-04-04 02:50:00,30.2,23.6,29.84,NE,45,0.0,-999.0,76,-99.99,,,0.00,Acu-Link.com,2013-04-04 09:50:00,
2013-04-04 03:05:00,30.2,23.9,29.84,ESE,112,0.0,-999.0,77,-99.99,,,0.00,Acu-Link.com,2013-04-04 10:05:00,
2013-04-04 03:21:00,30.2,23.6,29.83,ESE,112,0.0,-999.0,76,-99.99,,,0.00,Acu-Link.com,2013-04-04 10:21:00,
2013-04-04 03:51:00,30.2,23.6,29.82,ESE,112,0.0,-999.0,76,-99.99,,,0.00,Acu-Link.com,2013-04-04 10:51:00,
2013-04-04 04:07:00,30.2,23.9,29.82,ESE,112,0.0,-999.0,77,-99.99,,,0.00,Acu-Link.com,2013-04-04 11:07:00,
2013-04-04 04:22:00,30.2,23.6,29.80,SE,135,0.0,-999.0,76,-99.99,,,0.00,Acu-Link.com,2013-04-04 11:22:00,
2013-04-04 04:37:00,30.2,23.9,29.80,ESE,112,0.0,-999.0,77,-99.99,,,0.00,Acu-Link.com,2013-04-04 11:37:00,
2013-04-04 04:52:00,30.2,23.9,29.80,SE,135,0.0,-999.0,77,-99.99,,,0.00,Acu-Link.com,2013-04-04 11:52:00,
2013-04-04 05:07:00,30.2,23.9,29.79,ESE,112,0.0,-999.0,77,-99.99,,,0.00,Acu-Link.com,2013-04-04 12:07:00,
2013-04-04 05:22:00,30.2,24.2,29.78,ESE,112,0.0,-999.0,78,-99.99,,,0.00,Acu-Link.com,2013-04-04 12:22:00,
2013-04-04 05:37:00,163.4,18.9,29.78,East,90,0.0,-999.0,0,-99.99,,,0.00,Acu-Link.com,2013-04-04 12:37:00,
2013-04-04 05:53:00,30.2,24.8,29.76,ESE,112,0.0,-999.0,80,-99.99,,,0.00,Acu-Link.com,2013-04-04 12:53:00,
2013-04-04 06:08:00,30.2,24.5,29.76,ESE,112,0.0,-999.0,79,-99.99,,,0.00,Acu-Link.com,2013-04-04 13:08:00,
2013-04-04 06:23:00,30.2,24.2,29.76,ESE,112,0.0,-999.0,78,-99.99,,,0.00,Acu-Link.com,2013-04-04 13:23:00,
2013-04-04 06:38:00,30.2,24.2,29.75,ESE,112,0.0,-999.0,78,-99.99,,,0.00,Acu-Link.com,2013-04-04 13:38:00,
2013-04-04 06:53:00,30.2,24.5,29.74,NE,45,0.0,-999.0,79,-99.99,,,0.00,Acu-Link.com,2013-04-04 13:53:00,
2013-04-04 07:24:00,30.2,24.2,29.74,East,90,0.0,-999.0,78,-99.99,,,0.00,Acu-Link.com,2013-04-04 14:24:00,
2013-04-04 07:39:00,30.2,24.2,29.73,SSE,157,0.0,-999.0,78,-99.99,,,0.00,Acu-Link.com,2013-04-04 14:39:00,
2013-04-04 07:54:00,32.0,25.9,29.73,South,180,0.0,-999.0,78,-99.99,,,0.00,Acu-Link.com,2013-04-04 14:54:00,
2013-04-04 08:10:00,32.0,25.6,29.72,SSE,157,0.0,-999.0,77,-99.99,,,0.00,Acu-Link.com,2013-04-04 15:10:00,
2013-04-04 08:25:00,33.8,26.4,29.72,South,180,1.1,-999.0,74,-99.99,,,0.00,Acu-Link.com,2013-04-04 15:25:00,
2013-04-04 08:40:00,35.6,26.5,29.71,WSW,247,0.0,-999.0,69,-99.99,,,0.00,Acu-Link.com,2013-04-04 15:40:00,
2013-04-04 08:55:00,37.4,27.5,29.70,South,180,1.1,-999.0,67,-99.99,,,0.00,Acu-Link.com,2013-04-04 15:55:00,
2013-04-04 09:10:00,39.2,28.8,29.70,SW,225,2.0,-999.0,66,-99.99,,,0.00,Acu-Link.com,2013-04-04 16:10:00,
2013-04-04 09:25:00,41.0,28.6,29.69,South,180,2.0,-999.0,61,-99.99,,,0.00,Acu-Link.com,2013-04-04 16:25:00,
2013-04-04 09:40:00,41.0,29.0,29.68,ESE,112,0.0,-999.0,62,-99.99,,,0.00,Acu-Link.com,2013-04-04 16:40:00,
2013-04-04 09:56:00,44.6,31.2,29.68,West,270,0.0,-999.0,59,-99.99,,,0.00,Acu-Link.com,2013-04-04 16:56:00,
2013-04-04 10:11:00,46.4,32.4,29.67,WNW,292,0.0,-999.0,58,-99.99,,,0.00,Acu-Link.com,2013-04-04 17:11:00,
2013-04-04 11:12:00,51.8,35.7,29.65,East,90,2.7,-999.0,54,-99.99,,,0.00,Acu-Link.com,2013-04-04 18:12:00,
2013-04-04 11:27:00,51.8,35.2,29.64,ESE,112,2.0,-999.0,53,-99.99,,,0.00,Acu-Link.com,2013-04-04 18:27:00,
2013-04-04 11:42:00,53.6,35.4,29.63,SW,225,0.0,-999.0,50,-99.99,,,0.00,Acu-Link.com,2013-04-04 18:42:00,
2013-04-04 11:58:00,53.6,34.9,29.62,NNE,22,0.0,-999.0,49,-99.99,,,0.00,Acu-Link.com,2013-04-04 18:58:00,
2013-04-04 12:13:00,55.4,36.6,29.61,South,180,2.7,-999.0,49,-99.99,,,0.00,Acu-Link.com,2013-04-04 19:13:00,
2013-04-04 12:28:00,53.6,33.9,29.60,ESE,112,2.7,-999.0,47,-99.99,,,0.00,Acu-Link.com,2013-04-04 19:28:00,
2013-04-04 12:43:00,55.4,35.5,29.59,SE,135,0.0,-999.0,47,-99.99,,,0.00,Acu-Link.com,2013-04-04 19:43:00,
2013-04-04 12:59:00,55.4,35.5,29.59,ESE,112,2.0,-999.0,47,-99.99,,,0.00,Acu-Link.com,2013-04-04 19:59:00,
2013-04-04 13:14:00,55.4,35.5,29.58,WNW,292,2.0,-999.0,47,-99.99,,,0.00,Acu-Link.com,2013-04-04 20:14:00,
2013-04-04 13:29:00,55.4,35.0,29.57,SE,135,2.7,-999.0,46,-99.99,,,0.00,Acu-Link.com,2013-04-04 20:29:00,
2013-04-04 13:44:00,55.4,35.5,29.57,South,180,0.0,-999.0,47,-99.99,,,0.00,Acu-Link.com,2013-04-04 20:44:00,
2013-04-04 14:00:00,55.4,33.9,29.56,SSW,202,4.0,-999.0,44,-99.99,,,0.00,Acu-Link.com,2013-04-04 21:00:00,
2013-04-04 14:15:00,55.4,35.5,29.56,South,180,1.1,-999.0,47,-99.99,,,0.00,Acu-Link.com,2013-04-04 21:15:00,
2013-04-04 14:30:00,55.4,36.0,29.55,SW,225,2.7,-999.0,48,-99.99,,,0.00,Acu-Link.com,2013-04-04 21:30:00,
2013-04-04 14:45:00,53.6,35.9,29.55,ESE,112,4.0,-999.0,51,-99.99,,,0.00,Acu-Link.com,2013-04-04 21:45:00,
2013-04-04 15:00:00,51.8,36.6,29.55,ENE,67,5.6,-999.0,56,-99.99,,,0.00,Acu-Link.com,2013-04-04 22:00:00,
2013-04-04 15:15:00,51.8,37.9,29.55,SSW,202,3.6,-999.0,59,-99.99,,,0.00,Acu-Link.com,2013-04-04 22:15:00,
2013-04-04 15:30:00,51.8,39.6,29.55,West,270,1.6,-999.0,63,-99.99,,,0.00,Acu-Link.com,2013-04-04 22:30:00,
2013-04-04 15:46:00,50.0,39.9,29.54,NNW,337,1.6,-999.0,68,-99.99,,,0.00,Acu-Link.com,2013-04-04 22:46:00,
2013-04-04 16:01:00,50.0,38.7,29.54,West,270,3.1,-999.0,65,-99.99,,,0.00,Acu-Link.com,2013-04-04 23:01:00,
2013-04-04 16:16:00,48.2,39.2,29.53,ESE,112,1.6,-999.0,71,-99.99,,,0.00,Acu-Link.com,2013-04-04 23:16:00,
2013-04-04 16:47:00,46.4,39.3,29.52,SE,135,1.1,-999.0,76,-99.99,,,0.00,Acu-Link.com,2013-04-04 23:47:00,
2013-04-04 17:17:00,44.6,40.1,29.51,ESE,112,2.0,-999.0,84,-99.99,,,0.02,Acu-Link.com,2013-04-05 00:17:00,
2013-04-04 17:32:00,44.6,40.4,29.50,SSE,157,2.0,-999.0,85,-99.99,,,0.04,Acu-Link.com,2013-04-05 00:32:00,
2013-04-04 17:48:00,44.6,40.7,29.50,ESE,112,1.6,-999.0,86,-99.99,,,0.04,Acu-Link.com,2013-04-05 00:48:00,
2013-04-04 18:03:00,44.6,40.7,29.49,SE,135,1.6,-999.0,86,-99.99,,,0.04,Acu-Link.com,2013-04-05 01:03:00,
2013-04-04 18:18:00,42.8,39.2,29.48,SE,135,1.6,-999.0,87,-99.99,,,0.04,Acu-Link.com,2013-04-05 01:18:00,
2013-04-04 18:33:00,42.8,39.5,29.48,ESE,112,2.0,-999.0,88,-99.99,,,0.05,Acu-Link.com,2013-04-05 01:33:00,
2013-04-04 18:48:00,42.8,39.8,29.47,SE,135,2.0,-999.0,89,-99.99,,,0.05,Acu-Link.com,2013-04-05 01:48:00,
2013-04-04 19:03:00,42.8,40.1,29.46,ESE,112,2.7,-999.0,90,-99.99,,,0.05,Acu-Link.com,2013-04-05 02:03:00,
2013-04-04 19:18:00,42.8,42.3,29.46,ESE,112,1.6,-999.0,98,-99.99,,,0.06,Acu-Link.com,2013-04-05 02:18:00,
2013-04-04 19:34:00,42.8,42.3,29.45,ESE,112,1.1,-999.0,98,-99.99,,,0.07,Acu-Link.com,2013-04-05 02:34:00,
2013-04-04 20:04:00,41.0,40.5,29.45,South,180,1.1,-999.0,98,-99.99,,,0.08,Acu-Link.com,2013-04-05 03:04:00,
2013-04-04 20:19:00,41.0,40.5,29.44,SE,135,1.6,-999.0,98,-99.99,,,0.09,Acu-Link.com,2013-04-05 03:19:00,
2013-04-04 20:34:00,41.0,40.5,29.44,SE,135,1.6,-999.0,98,-99.99,,,0.11,Acu-Link.com,2013-04-05 03:34:00,
2013-04-04 20:50:00,41.0,40.5,29.44,SE,135,2.0,-999.0,98,-99.99,,,0.12,Acu-Link.com,2013-04-05 03:50:00,
2013-04-04 21:05:00,41.0,40.5,29.44,ESE,112,1.1,-999.0,98,-99.99,,,0.13,Acu-Link.com,2013-04-05 04:05:00,
2013-04-04 21:20:00,41.0,40.5,29.44,SSE,157,0.0,-999.0,98,-99.99,,,0.17,Acu-Link.com,2013-04-05 04:20:00,
2013-04-04 21:35:00,41.0,40.5,29.44,West,270,0.0,-999.0,98,-99.99,,,0.19,Acu-Link.com,2013-04-05 04:35:00,
2013-04-04 21:50:00,41.0,40.5,29.44,SE,135,2.0,-999.0,98,-99.99,,,0.21,Acu-Link.com,2013-04-05 04:50:00,
2013-04-04 22:05:00,41.0,40.5,29.43,ESE,112,1.6,-999.0,98,-99.99,,,0.22,Acu-Link.com,2013-04-05 05:05:00,
2013-04-04 22:21:00,41.0,40.5,29.43,ESE,112,0.0,-999.0,98,-99.99,,,0.26,Acu-Link.com,2013-04-05 05:21:00,
2013-04-04 22:36:00,41.0,40.5,29.43,SW,225,1.6,-999.0,98,-99.99,,,0.27,Acu-Link.com,2013-04-05 05:36:00,
2013-04-04 22:51:00,39.2,38.7,29.42,SSE,157,0.0,-999.0,98,-99.99,,,0.28,Acu-Link.com,2013-04-05 05:51:00,
2013-04-04 23:37:00,39.2,38.7,29.42,ESE,112,0.0,-999.0,98,-99.99,,,0.35,Acu-Link.com,2013-04-05 06:37:00,
2013-04-04 23:52:00,39.2,38.7,29.42,SSW,202,0.0,-999.0,98,-99.99,,,0.37,Acu-Link.com,2013-04-05 06:52:00,